createdAt,value
2017-12-28T00:01:54.127Z,12.18
2017-12-28T00:04:21.687Z,12.60
2017-12-28T00:06:49.960Z,13.27
2017-12-28T00:09:17.426Z,11.85
2017-12-28T00:11:44.933Z,13.18
2017-12-28T00:14:12.527Z,13.57
2017-12-28T00:16:40.096Z,11.43
2017-12-28T00:19:07.551Z,13.68
2017-12-28T00:21:35.108Z,14.30
2017-12-28T00:24:02.566Z,11.93
2017-12-28T00:26:30.031Z,12.30
2017-12-28T00:28:57.488Z,12.85
2017-12-28T00:31:24.955Z,10.98
2017-12-28T00:33:53.179Z,11.80
2017-12-28T00:36:20.640Z,12.23
2017-12-28T00:38:48.120Z,12.80
2017-12-28T00:41:15.583Z,11.75
2017-12-28T00:43:43.135Z,13.27
2017-12-28T00:46:10.601Z,13.43
2017-12-28T00:48:38.059Z,12.15
2017-12-28T00:51:05.507Z,11.73
2017-12-28T00:53:33.068Z,12.18
2017-12-28T00:56:00.523Z,11.27
2017-12-28T00:58:27.980Z,12.65
2017-12-28T01:00:55.601Z,12.82
2017-12-28T01:03:23.052Z,13.75
2017-12-28T01:05:50.560Z,13.05
2017-12-28T01:08:18.020Z,13.43
2017-12-28T01:10:45.492Z,11.55
2017-12-28T01:13:13.728Z,11.93
2017-12-28T01:15:41.213Z,12.20
2017-12-28T01:18:08.768Z,12.02
2017-12-28T01:20:36.233Z,11.65
2017-12-28T01:23:03.785Z,11.43
2017-12-28T01:25:31.345Z,10.77
2017-12-28T01:27:58.905Z,12.35
2017-12-28T01:30:26.368Z,11.35
2017-12-28T01:32:54.593Z,11.27
2017-12-28T01:35:22.056Z,12.52
2017-12-28T01:37:49.529Z,13.38
2017-12-28T01:40:16.988Z,13.25
2017-12-28T01:42:44.561Z,12.55
2017-12-28T01:45:12.029Z,13.57
2017-12-28T01:47:52.183Z,12.77
2017-12-28T01:50:20.501Z,12.45
2017-12-28T01:52:48.009Z,14.05
2017-12-28T01:55:15.557Z,13.15
2017-12-28T01:57:43.027Z,12.57
2017-12-28T02:00:10.581Z,11.98
2017-12-28T02:02:38.462Z,11.57
2017-12-28T02:05:06.717Z,12.13
2017-12-28T02:07:34.268Z,12.73
2017-12-28T02:10:01.850Z,11.85
2017-12-28T02:12:30.077Z,13.27
2017-12-28T02:14:57.540Z,12.18
2017-12-28T02:17:25.025Z,12.00
2017-12-28T02:19:52.485Z,11.50
2017-12-28T02:22:20.032Z,12.60
2017-12-28T02:24:47.521Z,11.63
2017-12-28T02:27:15.772Z,12.25
2017-12-28T02:29:43.247Z,11.15
2017-12-28T02:32:11.475Z,11.45
2017-12-28T02:34:38.946Z,11.60
2017-12-28T02:37:06.473Z,12.35
2017-12-28T02:39:33.953Z,12.13
2017-12-28T02:42:01.417Z,12.00
2017-12-28T02:44:29.676Z,10.70
2017-12-28T02:46:57.143Z,11.43
2017-12-28T02:49:24.612Z,10.82
2017-12-28T02:51:52.081Z,11.60
2017-12-28T02:54:19.549Z,11.35
2017-12-28T02:56:47.866Z,11.43
2017-12-28T02:59:15.333Z,10.77
2017-12-28T03:01:42.791Z,10.93
2017-12-28T03:04:10.281Z,12.73
2017-12-28T03:06:37.897Z,11.75
2017-12-28T03:09:05.360Z,11.25
2017-12-28T03:11:32.835Z,12.88
2017-12-28T03:14:00.687Z,11.65
2017-12-28T03:16:28.165Z,12.35
2017-12-28T03:18:55.630Z,11.00
2017-12-28T03:21:23.251Z,13.70
2017-12-28T03:23:50.709Z,11.82
2017-12-28T03:26:18.172Z,11.80
2017-12-28T03:28:45.637Z,11.32
2017-12-28T03:31:13.108Z,11.05
2017-12-28T03:33:40.564Z,10.60
2017-12-28T03:36:08.037Z,11.20
2017-12-28T03:38:35.506Z,10.45
2017-12-28T03:41:02.967Z,12.07
2017-12-28T03:43:31.205Z,11.12
2017-12-28T03:45:58.689Z,10.38
2017-12-28T03:48:26.240Z,11.57
2017-12-28T03:50:53.802Z,11.30
2017-12-28T03:53:21.261Z,12.25
2017-12-28T03:55:48.720Z,12.40
2017-12-28T03:58:16.269Z,11.80
2017-12-28T04:00:45.246Z,11.23
2017-12-28T04:03:12.725Z,11.00
2017-12-28T04:05:40.189Z,12.65
2017-12-28T04:08:07.700Z,12.65
2017-12-28T04:10:35.156Z,13.50
2017-12-28T04:13:02.639Z,11.45
2017-12-28T04:15:30.113Z,12.15
2017-12-28T04:17:59.098Z,12.30
2017-12-28T04:20:26.549Z,13.82
2017-12-28T04:22:54.100Z,12.60
2017-12-28T04:25:21.727Z,12.90
2017-12-28T04:27:49.176Z,11.63
2017-12-28T04:30:16.649Z,11.65
2017-12-28T04:32:44.118Z,11.00
2017-12-28T04:35:11.600Z,12.05
2017-12-28T04:37:39.051Z,12.85
2017-12-28T04:40:06.516Z,12.27
2017-12-28T04:42:33.985Z,11.65
2017-12-28T04:45:02.253Z,12.18
2017-12-28T04:47:29.799Z,11.93
2017-12-28T04:49:57.369Z,12.90
2017-12-28T04:52:24.925Z,13.50
2017-12-28T04:54:52.397Z,12.05
2017-12-28T04:57:20.643Z,10.93
2017-12-28T04:59:48.123Z,11.30
2017-12-28T05:02:16.360Z,12.07
2017-12-28T05:04:43.835Z,12.00
2017-12-28T05:07:11.299Z,12.93
2017-12-28T05:09:38.856Z,12.57
2017-12-28T05:12:06.311Z,11.23
2017-12-28T05:14:33.780Z,12.52
2017-12-28T05:17:02.054Z,12.98
2017-12-28T05:19:29.513Z,12.07
2017-12-28T05:21:56.987Z,12.77
2017-12-28T05:24:25.220Z,11.70
2017-12-28T05:26:52.679Z,11.50
2017-12-28T05:29:20.149Z,13.18
2017-12-28T05:31:47.622Z,12.70
2017-12-28T05:34:15.849Z,11.00
2017-12-28T05:36:43.324Z,12.27
2017-12-28T05:39:10.788Z,11.98
2017-12-28T05:41:38.349Z,12.60
2017-12-28T05:44:05.829Z,11.15
2017-12-28T05:46:34.065Z,12.43
2017-12-28T05:49:01.533Z,11.63
2017-12-28T05:51:28.996Z,12.07
2017-12-28T05:53:56.469Z,12.82
2017-12-28T05:56:23.916Z,11.48
2017-12-28T05:58:51.378Z,11.98
2017-12-28T06:01:19.641Z,12.18
2017-12-28T06:03:47.109Z,12.73
2017-12-28T06:06:14.576Z,12.10
2017-12-28T06:08:42.816Z,13.13
2017-12-28T06:11:10.272Z,14.00
2017-12-28T06:13:37.740Z,13.35
2017-12-28T06:16:05.199Z,12.82
2017-12-28T06:18:32.667Z,11.82
2017-12-28T06:21:00.147Z,12.27
2017-12-28T06:23:28.373Z,12.75
2017-12-28T06:25:55.947Z,13.10
2017-12-28T06:28:23.405Z,12.07
2017-12-28T06:30:50.879Z,56.75
2017-12-28T06:33:19.113Z,14.15
2017-12-28T06:35:46.649Z,18.35
2017-12-28T06:38:14.688Z,26.33
2017-12-28T06:40:42.925Z,12.45
2017-12-28T06:43:10.401Z,11.55
2017-12-28T06:45:37.962Z,11.88
2017-12-28T06:48:05.521Z,13.32
2017-12-28T06:50:33.085Z,12.07
2017-12-28T06:53:00.625Z,12.05
2017-12-28T06:55:28.088Z,12.15
2017-12-28T06:57:55.661Z,11.88
2017-12-28T07:00:23.122Z,11.90
2017-12-28T07:02:51.390Z,11.85
2017-12-28T07:05:18.835Z,10.80
2017-12-28T07:07:46.406Z,13.18
2017-12-28T07:10:14.641Z,13.05
2017-12-28T07:12:42.124Z,11.30
2017-12-28T07:15:09.685Z,11.02
2017-12-28T07:17:37.156Z,12.10
2017-12-28T07:20:05.410Z,11.95
2017-12-28T07:22:32.991Z,11.02
2017-12-28T07:25:00.448Z,11.90
2017-12-28T07:27:28.760Z,12.40
2017-12-28T07:29:56.265Z,10.75
2017-12-28T07:32:23.779Z,10.95
2017-12-28T07:34:51.240Z,12.07
2017-12-28T07:37:18.744Z,11.85
2017-12-28T07:39:46.218Z,12.60
2017-12-28T07:42:14.445Z,11.00
2017-12-28T07:44:41.902Z,11.00
2017-12-28T07:47:09.365Z,11.57
2017-12-28T07:49:36.850Z,12.10
2017-12-28T07:52:04.318Z,10.73
2017-12-28T07:54:32.557Z,10.60
2017-12-28T07:57:00.026Z,11.73
2017-12-28T07:59:28.243Z,9.65
2017-12-28T08:01:56.073Z,10.70
2017-12-28T08:04:23.535Z,11.80
2017-12-28T08:06:50.996Z,10.48
2017-12-28T08:09:19.253Z,9.95
2017-12-28T08:11:46.830Z,10.02
2017-12-28T08:14:14.382Z,10.70
2017-12-28T08:16:41.845Z,9.57
2017-12-28T08:19:09.312Z,9.73
2017-12-28T08:21:37.563Z,10.35
2017-12-28T08:24:05.020Z,10.55
2017-12-28T08:26:32.479Z,9.45
2017-12-28T08:29:00.039Z,8.60
2017-12-28T08:31:27.487Z,9.38
2017-12-28T08:33:55.048Z,9.02
2017-12-28T08:36:22.513Z,17.95
2017-12-28T08:38:49.969Z,8.50
2017-12-28T08:41:17.520Z,9.07
2017-12-28T08:43:44.980Z,8.60
2017-12-28T08:46:12.528Z,8.63
2017-12-28T08:48:39.989Z,8.45
2017-12-28T08:51:07.453Z,8.38
2017-12-28T08:53:34.914Z,9.00
2017-12-28T08:56:02.465Z,8.93
2017-12-28T08:58:29.911Z,8.60
2017-12-28T09:00:57.472Z,8.88
2017-12-28T09:03:24.940Z,8.98
2017-12-28T09:05:52.485Z,8.40
2017-12-28T09:08:19.945Z,9.15
2017-12-28T09:10:47.395Z,8.15
2017-12-28T09:13:14.977Z,8.25
2017-12-28T09:15:42.429Z,8.52
2017-12-28T09:18:09.895Z,7.40
2017-12-28T09:20:38.124Z,8.07
2017-12-28T09:23:05.597Z,8.55
2017-12-28T09:25:33.060Z,8.30
2017-12-28T09:28:00.619Z,7.35
2017-12-28T09:30:28.084Z,7.75
2017-12-28T09:32:55.641Z,7.25
2017-12-28T09:35:23.098Z,6.25
2017-12-28T09:37:50.580Z,6.50
2017-12-28T09:40:18.839Z,6.87
2017-12-28T09:42:46.293Z,7.07
2017-12-28T09:45:13.844Z,6.22
2017-12-28T09:47:41.301Z,6.37
2017-12-28T09:50:08.865Z,6.32
2017-12-28T09:52:37.088Z,7.30
2017-12-28T09:55:04.589Z,6.03
2017-12-28T09:57:32.051Z,4.93
2017-12-28T09:59:59.511Z,7.57
2017-12-28T10:02:27.060Z,6.12
2017-12-28T10:04:55.295Z,5.43
2017-12-28T10:07:22.748Z,6.32
2017-12-28T10:09:50.212Z,4.85
2017-12-28T10:12:17.676Z,4.40
2017-12-28T10:14:45.140Z,4.43
2017-12-28T10:17:12.592Z,4.50
2017-12-28T10:19:40.141Z,4.47
2017-12-28T10:22:07.587Z,4.62
2017-12-28T10:24:35.036Z,3.87
2017-12-28T10:27:02.501Z,4.85
2017-12-28T10:29:30.018Z,4.15
2017-12-28T10:31:57.487Z,3.58
2017-12-28T10:34:25.697Z,3.60
2017-12-28T10:36:53.162Z,3.75
2017-12-28T10:39:20.605Z,4.20
2017-12-28T10:41:48.072Z,4.05
2017-12-28T10:44:15.527Z,3.30
2017-12-28T10:46:42.992Z,2.40
2017-12-28T10:49:10.444Z,3.10
2017-12-28T10:51:37.936Z,3.15
2017-12-28T10:54:05.400Z,3.33
2017-12-28T10:56:32.944Z,2.50
2017-12-28T10:59:00.512Z,2.60
2017-12-28T11:01:27.981Z,2.50
2017-12-28T11:03:55.433Z,2.58
2017-12-28T11:06:22.988Z,2.00
2017-12-28T11:08:50.544Z,2.40
2017-12-28T11:11:17.993Z,3.08
2017-12-28T11:13:45.444Z,2.80
2017-12-28T11:16:12.921Z,2.08
2017-12-28T11:18:40.384Z,2.30
2017-12-28T11:21:08.650Z,2.10
2017-12-28T11:23:36.201Z,7.47
2017-12-28T11:26:03.660Z,4.15
2017-12-28T11:28:32.620Z,3.42
2017-12-28T11:31:00.071Z,2.12
2017-12-28T11:33:27.563Z,1.90
2017-12-28T11:35:55.023Z,3.03
2017-12-28T11:38:22.480Z,4.07
2017-12-28T11:40:49.946Z,2.50
2017-12-28T11:43:17.412Z,7.68
2017-12-28T11:45:45.637Z,2.40
2017-12-28T11:48:13.097Z,3.03
2017-12-28T11:50:42.991Z,2.10
2017-12-28T11:53:16.285Z,3.40
2017-12-28T11:55:43.742Z,3.37
2017-12-28T11:58:11.200Z,4.32
2017-12-28T12:00:44.412Z,3.35
2017-12-28T12:03:11.882Z,3.05
2017-12-28T12:05:45.036Z,2.85
2017-12-28T12:08:18.141Z,2.55
2017-12-28T12:10:51.630Z,2.87
2017-12-28T12:13:19.112Z,2.50
2017-12-28T12:15:46.592Z,2.30
2017-12-28T12:18:14.044Z,1.92
2017-12-28T12:20:41.587Z,2.70
2017-12-28T12:23:09.816Z,2.22
2017-12-28T12:25:37.271Z,2.20
2017-12-28T12:28:04.728Z,3.35
2017-12-28T12:30:32.248Z,2.50
2017-12-28T12:32:59.805Z,3.03
2017-12-28T12:35:27.261Z,2.60
2017-12-28T12:37:54.813Z,2.40
2017-12-28T12:40:22.364Z,1.95
2017-12-28T12:42:49.923Z,2.85
2017-12-28T12:45:17.384Z,2.55
2017-12-28T12:47:44.948Z,2.60
2017-12-28T12:50:12.412Z,2.83
2017-12-28T12:52:39.865Z,2.12
2017-12-28T12:55:07.416Z,2.30
2017-12-28T12:57:34.864Z,2.37
2017-12-28T13:00:02.316Z,2.08
2017-12-28T13:02:29.781Z,2.50
2017-12-28T13:04:57.345Z,2.80
2017-12-28T13:07:24.836Z,4.82
2017-12-28T13:09:53.072Z,2.90
2017-12-28T13:12:20.528Z,2.15
2017-12-28T13:14:47.979Z,2.15
2017-12-28T13:17:15.460Z,2.47
2017-12-28T13:19:43.012Z,2.62
2017-12-28T13:22:10.564Z,2.08
2017-12-28T13:24:38.029Z,2.25
2017-12-28T13:27:05.489Z,2.28
2017-12-28T13:29:34.457Z,2.20
2017-12-28T13:32:01.916Z,2.42
2017-12-28T13:34:29.373Z,2.17
2017-12-28T13:36:56.828Z,2.20
2017-12-28T13:39:24.277Z,2.42
2017-12-28T13:41:51.751Z,2.25
2017-12-28T13:44:19.211Z,2.00
2017-12-28T13:46:46.730Z,2.20
2017-12-28T13:49:14.175Z,2.22
2017-12-28T13:51:41.643Z,2.20
2017-12-28T13:54:09.134Z,1.73
2017-12-28T13:56:36.595Z,2.12
2017-12-28T13:59:04.040Z,2.25
2017-12-28T14:01:31.610Z,2.85
2017-12-28T14:03:59.067Z,2.83
2017-12-28T14:06:26.513Z,2.50
2017-12-28T14:08:54.081Z,2.03
2017-12-28T14:11:21.641Z,2.40
2017-12-28T14:13:49.261Z,2.20
2017-12-28T14:16:16.762Z,2.45
2017-12-28T14:18:44.217Z,2.30
2017-12-28T14:21:13.176Z,2.70
2017-12-28T14:23:40.659Z,2.62
2017-12-28T14:26:08.108Z,2.83
2017-12-28T14:28:35.568Z,3.33
2017-12-28T14:31:03.036Z,3.40
2017-12-28T14:33:30.496Z,2.67
2017-12-28T14:35:57.974Z,2.65
2017-12-28T14:38:26.205Z,2.12
2017-12-28T14:40:53.663Z,2.72
2017-12-28T14:43:21.140Z,2.45
2017-12-28T14:45:48.611Z,2.50
2017-12-28T14:48:16.870Z,2.65
2017-12-28T14:50:44.419Z,2.70
2017-12-28T14:53:11.884Z,2.10
2017-12-28T14:55:39.345Z,2.45
2017-12-28T14:58:06.903Z,2.80
2017-12-28T15:00:35.867Z,2.67
2017-12-28T15:03:03.311Z,2.58
2017-12-28T15:05:30.805Z,2.90
2017-12-28T15:07:58.361Z,3.50
2017-12-28T15:10:25.817Z,2.65
2017-12-28T15:12:53.266Z,2.80
2017-12-28T15:15:20.744Z,2.70
2017-12-28T15:17:48.287Z,3.00
2017-12-28T15:20:15.744Z,3.37
2017-12-28T15:22:43.204Z,3.90
2017-12-28T15:25:11.430Z,4.80
2017-12-28T15:27:38.943Z,3.12
2017-12-28T15:30:06.395Z,3.40
2017-12-28T15:32:33.861Z,2.80
2017-12-28T15:35:01.317Z,2.65
2017-12-28T15:37:28.860Z,3.92
2017-12-28T15:39:56.429Z,2.90
2017-12-28T15:42:23.892Z,2.67
2017-12-28T15:44:51.343Z,2.65
2017-12-28T15:47:18.808Z,3.05
2017-12-28T15:49:47.460Z,4.90
2017-12-28T15:52:14.931Z,3.03
2017-12-28T15:54:43.212Z,2.95
2017-12-28T15:57:11.502Z,2.75
2017-12-28T15:59:38.951Z,3.03
2017-12-28T16:02:06.505Z,2.35
2017-12-28T16:04:33.972Z,4.00
2017-12-28T16:07:01.529Z,3.25
2017-12-28T16:09:28.980Z,3.17
2017-12-28T16:11:56.444Z,2.15
2017-12-28T16:14:23.991Z,3.05
2017-12-28T16:16:51.444Z,2.45
2017-12-28T16:19:18.903Z,2.80
2017-12-28T16:21:46.364Z,2.78
2017-12-28T16:24:13.917Z,2.78
2017-12-28T16:26:41.377Z,2.28
2017-12-28T16:29:08.932Z,2.67
2017-12-28T16:31:36.497Z,2.40
2017-12-28T16:34:04.050Z,2.92
2017-12-28T16:36:31.606Z,2.95
2017-12-28T16:38:59.833Z,1.83
2017-12-28T16:41:27.291Z,2.97
2017-12-28T16:43:54.747Z,1.90
2017-12-28T16:46:22.204Z,2.37
2017-12-28T16:48:49.665Z,2.67
2017-12-28T16:51:17.132Z,1.98
2017-12-28T16:53:44.625Z,2.58
2017-12-28T16:56:12.176Z,2.72
2017-12-28T16:58:39.735Z,3.10
2017-12-28T17:01:07.201Z,5.40
2017-12-28T17:03:34.698Z,3.20
2017-12-28T17:06:02.162Z,2.35
2017-12-28T17:08:29.621Z,2.92
2017-12-28T17:10:57.093Z,3.17
2017-12-28T17:13:24.548Z,2.80
2017-12-28T17:15:52.012Z,3.65
2017-12-28T17:18:19.488Z,2.70
2017-12-28T17:20:46.953Z,2.10
2017-12-28T17:23:14.416Z,3.00
2017-12-28T17:25:41.876Z,4.22
2017-12-28T17:28:09.340Z,2.55
2017-12-28T17:30:37.566Z,2.50
2017-12-28T17:33:05.116Z,2.80
2017-12-28T17:35:32.572Z,3.35
2017-12-28T17:38:00.068Z,3.55
2017-12-28T17:40:27.519Z,3.10
2017-12-28T17:42:55.093Z,3.03
2017-12-28T17:45:24.052Z,3.50
2017-12-28T17:47:51.533Z,2.33
2017-12-28T17:50:19.770Z,2.97
2017-12-28T17:52:47.263Z,2.50
2017-12-28T17:55:14.733Z,2.67
2017-12-28T17:57:42.185Z,2.22
2017-12-28T18:00:09.741Z,3.10
2017-12-28T18:02:37.219Z,2.62
2017-12-28T18:05:05.428Z,2.40
2017-12-28T18:07:32.940Z,2.00
2017-12-28T18:10:00.406Z,2.95
2017-12-28T18:12:28.657Z,2.00
2017-12-28T18:14:56.111Z,2.65
2017-12-28T18:17:23.668Z,2.70
2017-12-28T18:19:51.132Z,2.62
2017-12-28T18:22:18.579Z,2.90
2017-12-28T18:24:46.145Z,3.17
2017-12-28T18:27:13.609Z,2.72
2017-12-28T18:29:41.059Z,2.40
2017-12-28T18:32:08.522Z,3.05
2017-12-28T18:34:35.993Z,2.83
2017-12-28T18:37:04.212Z,2.80
2017-12-28T18:39:31.695Z,4.07
2017-12-28T18:41:59.199Z,3.70
2017-12-28T18:44:26.657Z,2.72
2017-12-28T18:46:54.872Z,3.78
2017-12-28T18:49:22.453Z,2.15
2017-12-28T18:51:50.805Z,3.08
2017-12-28T18:54:18.255Z,2.80
2017-12-28T18:56:45.719Z,2.60
2017-12-28T18:59:13.200Z,2.35
2017-12-28T19:01:40.664Z,2.22
2017-12-28T19:04:08.123Z,2.80
2017-12-28T19:06:35.666Z,2.78
2017-12-28T19:09:04.252Z,2.67
2017-12-28T19:11:31.817Z,2.65
2017-12-28T19:13:59.277Z,2.35
2017-12-28T19:16:26.830Z,3.90
2017-12-28T19:18:55.061Z,2.70
2017-12-28T19:21:22.522Z,2.87
2017-12-28T19:23:50.076Z,2.92
2017-12-28T19:26:17.524Z,3.53
2017-12-28T19:28:45.027Z,2.55
2017-12-28T19:31:12.522Z,2.95
2017-12-28T19:33:40.767Z,2.90
2017-12-28T19:36:08.230Z,3.47
2017-12-28T19:38:35.680Z,2.62
2017-12-28T19:41:03.241Z,3.20
2017-12-28T19:43:30.794Z,3.25
2017-12-28T19:45:58.263Z,4.68
2017-12-28T19:48:25.769Z,4.35
2017-12-28T19:50:53.221Z,2.90
2017-12-28T19:53:20.693Z,3.65
2017-12-28T19:55:48.240Z,2.72
2017-12-28T19:58:15.718Z,2.65
2017-12-28T20:00:43.238Z,3.15
2017-12-28T20:03:10.710Z,3.05
2017-12-28T20:05:38.231Z,3.70
2017-12-28T20:08:06.457Z,3.25
2017-12-28T20:10:33.933Z,3.47
2017-12-28T20:13:01.383Z,2.60
2017-12-28T20:15:28.857Z,2.75
2017-12-28T20:17:56.311Z,3.83
2017-12-28T20:20:23.768Z,3.00
2017-12-28T20:22:51.332Z,3.33
2017-12-28T20:25:18.889Z,3.08
2017-12-28T20:27:47.166Z,3.53
2017-12-28T20:30:14.590Z,3.15
2017-12-28T20:32:42.061Z,3.15
2017-12-28T20:35:09.632Z,3.20
2017-12-28T20:37:37.200Z,3.65
2017-12-28T20:40:04.763Z,2.65
2017-12-28T20:42:32.271Z,3.37
2017-12-28T20:44:59.727Z,3.37
2017-12-28T20:47:27.188Z,2.97
2017-12-28T20:49:54.649Z,3.08
2017-12-28T20:52:22.103Z,3.00
2017-12-28T20:54:49.571Z,3.80
2017-12-28T20:57:17.028Z,2.92
2017-12-28T20:59:44.484Z,3.58
2017-12-28T21:02:11.949Z,3.33
2017-12-28T21:04:39.407Z,4.03
2017-12-28T21:07:06.878Z,4.18
2017-12-28T21:09:34.435Z,4.25
2017-12-28T21:12:02.013Z,3.92
2017-12-28T21:14:29.473Z,3.28
2017-12-28T21:16:57.708Z,3.50
2017-12-28T21:19:25.168Z,3.17
2017-12-28T21:21:52.641Z,3.95
2017-12-28T21:24:20.212Z,3.20
2017-12-28T21:26:47.752Z,4.57
2017-12-28T21:29:15.212Z,3.87
2017-12-28T21:31:42.772Z,3.35
2017-12-28T21:34:10.323Z,4.20
2017-12-28T21:36:38.012Z,3.62
2017-12-28T21:39:06.236Z,5.00
2017-12-28T21:41:33.693Z,4.65
2017-12-28T21:44:01.821Z,5.30
2017-12-28T21:46:30.081Z,3.60
2017-12-28T21:48:57.548Z,5.00
2017-12-28T21:51:25.766Z,3.78
2017-12-28T21:53:53.223Z,3.97
2017-12-28T21:56:20.717Z,4.10
2017-12-28T21:58:48.272Z,3.95
2017-12-28T22:01:15.744Z,4.80
2017-12-28T22:03:43.210Z,4.72
2017-12-28T22:06:11.516Z,4.30
2017-12-28T22:08:39.019Z,4.65
2017-12-28T22:11:06.486Z,4.15
2017-12-28T22:13:33.939Z,4.60
2017-12-28T22:16:01.492Z,4.65
2017-12-28T22:18:28.948Z,5.25
2017-12-28T22:20:56.512Z,5.35
2017-12-28T22:23:24.025Z,4.78
2017-12-28T22:25:51.524Z,5.12
2017-12-28T22:28:18.976Z,4.05
2017-12-28T22:30:46.434Z,5.25
2017-12-28T22:33:13.997Z,5.55
2017-12-28T22:35:41.461Z,4.47
2017-12-28T22:38:09.013Z,4.55
2017-12-28T22:40:36.473Z,5.60
2017-12-28T22:43:04.028Z,5.47
2017-12-28T22:45:31.485Z,5.07
2017-12-28T22:47:59.002Z,5.90
2017-12-28T22:50:26.459Z,5.87
2017-12-28T22:52:53.916Z,4.72
2017-12-28T22:55:21.372Z,6.03
2017-12-28T22:57:48.850Z,5.80
2017-12-28T23:00:17.124Z,5.22
2017-12-28T23:02:44.580Z,5.10
2017-12-28T23:05:12.035Z,5.97
2017-12-28T23:07:39.496Z,5.70
2017-12-28T23:10:06.946Z,6.28
2017-12-28T23:12:34.487Z,5.47
2017-12-28T23:15:02.045Z,6.07
2017-12-28T23:17:29.507Z,6.75
2017-12-28T23:19:56.960Z,6.40
2017-12-28T23:22:24.425Z,6.75
2017-12-28T23:24:51.885Z,5.82
2017-12-28T23:27:19.341Z,5.95
2017-12-28T23:29:46.800Z,6.93
2017-12-28T23:32:14.265Z,7.45
2017-12-28T23:34:41.723Z,6.12
2017-12-28T23:37:09.192Z,6.82
2017-12-28T23:39:36.652Z,6.30
2017-12-28T23:42:04.104Z,7.37
2017-12-28T23:44:31.573Z,7.35
2017-12-28T23:46:59.028Z,6.80
2017-12-28T23:49:26.499Z,7.50
2017-12-28T23:51:53.955Z,7.90
2017-12-28T23:54:22.172Z,7.87
2017-12-28T23:56:49.643Z,10.18
2017-12-28T23:59:17.121Z,8.65
